Time;durP1;ratioP1;P1;durP2;ratioP2;P2;SDS_P1;SDS_P2;PMS_P1;PMS_P2;Temp;Humidity;BMP_temperature;BMP_pressure;BME280_temperature;BME280_humidity;BME280_pressure;Samples;Min_cycle;Max_cycle;Signal;HPM_P1;HPM_P2
2021/11/05 00:01:55;;;;;;;1.95;1.75;;;;;;;1.65;100.00;100518.47;5123099;27;20078;-47
2021/11/05 00:04:58;;;;;;;3.58;2.17;;;;;;;1.63;100.00;100514.56;5135661;27;20617;-47
2021/11/05 00:08:11;;;;;;;2.17;2.00;;;;;;;1.61;100.00;100516.91;5135512;27;20087;-47
2021/11/05 00:11:14;;;;;;;1.40;1.40;;;;;;;1.62;100.00;100510.25;5135520;27;20039;-47
2021/11/05 00:14:16;;;;;;;1.05;1.05;;;;;;;1.59;100.00;100508.31;5135539;27;20115;-47
2021/11/05 00:17:19;;;;;;;1.73;1.63;;;;;;;1.57;100.00;100516.16;5135713;27;20492;-47
2021/11/05 00:20:23;;;;;;;4.57;2.72;;;;;;;1.51;100.00;100507.56;5133002;27;20046;-47
2021/11/05 00:23:27;;;;;;;3.35;2.63;;;;;;;1.51;100.00;100508.34;5114633;28;20046;-47
2021/11/05 00:26:29;;;;;;;1.27;1.27;;;;;;;1.48;100.00;100511.09;5114901;28;20086;-47
2021/11/05 00:29:32;;;;;;;3.22;2.03;;;;;;;1.45;100.00;100507.19;5114582;28;20106;-47
2021/11/05 00:32:35;;;;;;;1.77;1.55;;;;;;;1.43;100.00;100520.53;5114865;28;20061;-47
2021/11/05 00:35:39;;;;;;;1.77;1.50;;;;;;;1.39;100.00;100517.00;5114411;28;20047;-47
2021/11/05 00:38:46;;;;;;;2.25;2.15;;;;;;;1.38;100.00;100515.47;5114614;28;20486;-47
2021/11/05 00:41:49;;;;;;;1.50;1.40;;;;;;;1.31;100.00;100514.69;5114816;28;20128;-47
2021/11/05 00:44:52;;;;;;;6.10;2.15;;;;;;;1.34;100.00;100514.66;5114520;28;20042;-47
2021/11/05 00:47:55;;;;;;;0.63;0.63;;;;;;;1.22;100.00;100523.34;5114504;28;20055;-47
2021/11/05 00:50:58;;;;;;;11.07;2.42;;;;;;;1.23;100.00;100524.91;5114266;28;20034;-47
2021/11/05 00:54:01;;;;;;;3.92;2.25;;;;;;;1.27;100.00;100528.44;5113824;28;20043;-47
2021/11/05 00:57:04;;;;;;;1.65;1.55;;;;;;;1.31;100.00;100525.66;5114068;28;20046;-47
2021/11/05 01:00:11;;;;;;;1.60;1.50;;;;;;;1.30;100.00;100526.84;5101348;28;20514;-47
2021/11/05 01:03:14;;;;;;;1.75;1.75;;;;;;;1.31;100.00;100528.41;5114343;28;20038;-47
2021/11/05 01:06:18;;;;;;;3.80;3.42;;;;;;;1.26;100.00;100529.59;5114002;28;20114;-47
2021/11/05 01:09:21;;;;;;;2.28;1.52;;;;;;;1.27;100.00;100535.88;5113390;28;20043;-47
2021/11/05 01:12:25;;;;;;;1.17;1.15;;;;;;;1.26;100.00;100532.34;5113940;28;20088;-47
2021/11/05 01:15:27;;;;;;;2.60;1.80;;;;;;;1.28;100.00;100534.66;5114103;28;20514;-48
2021/11/05 01:18:30;;;;;;;4.20;2.47;;;;;;;1.26;100.00;100526.84;5114023;28;20749;-47
2021/11/05 01:21:33;;;;;;;1.65;1.55;;;;;;;1.24;100.00;100536.66;5125904;27;20058;-47
2021/11/05 01:24:36;;;;;;;1.65;1.55;;;;;;;1.23;100.00;100529.63;5133630;27;20038;-47
2021/11/05 01:27:44;;;;;;;6.70;2.33;;;;;;;1.21;100.00;100532.72;5113956;28;20039;-47
2021/11/05 01:30:47;;;;;;;0.98;0.98;;;;;;;1.12;100.00;100540.59;5113453;28;20066;-48
2021/11/05 01:33:50;;;;;;;1.58;1.48;;;;;;;1.08;100.00;100534.34;5113378;28;20038;-48
2021/11/05 01:36:53;;;;;;;0.90;0.90;;;;;;;1.08;100.00;100533.56;5113417;28;20058;-47
2021/11/05 01:39:56;;;;;;;11.15;3.65;;;;;;;1.04;100.00;100533.56;5113460;28;20034;-47
2021/11/05 01:43:01;;;;;;;8.30;2.30;;;;;;;1.07;100.00;100532.78;5113623;28;20498;-47
2021/11/05 01:46:08;;;;;;;2.42;2.28;;;;;;;1.11;100.00;100533.53;5113205;28;20042;-47
2021/11/05 01:49:12;;;;;;;24.70;2.70;;;;;;;1.10;100.00;100542.97;5113178;28;20082;-47
2021/11/05 01:52:16;;;;;;;1.33;1.33;;;;;;;1.10;100.00;100539.44;5113303;28;20124;-47
2021/11/05 01:55:19;;;;;;;1.65;1.65;;;;;;;1.06;100.00;100547.66;5113844;28;20498;-48
2021/11/05 01:58:21;;;;;;;1.65;1.48;;;;;;;1.07;100.00;100532.78;5112572;28;20097;-47
2021/11/05 02:01:24;;;;;;;1.63;1.48;;;;;;;1.05;100.00;100540.63;5113469;28;20055;-47
2021/11/05 02:04:27;;;;;;;3.08;2.88;;;;;;;1.04;100.00;100536.28;5112832;28;20080;-48
2021/11/05 02:07:34;;;;;;;6.50;1.98;;;;;;;1.03;100.00;100542.19;5113629;28;20046;-47
2021/11/05 02:10:38;;;;;;;6.70;2.42;;;;;;;1.05;100.00;100546.09;5117335;28;20046;-48
2021/11/05 02:13:43;;;;;;;1.45;1.35;;;;;;;1.05;100.00;100548.84;5117547;28;20045;-47
2021/11/05 02:16:50;;;;;;;0.95;0.95;;;;;;;0.97;100.00;100550.03;5117425;28;20144;-47
2021/11/05 02:19:56;;;;;;;1.02;1.02;;;;;;;0.94;100.00;100553.56;5117363;28;20505;-48
2021/11/05 02:22:59;;;;;;;2.13;1.10;;;;;;;1.00;100.00;100554.72;5117042;28;20396;-47
2021/11/05 02:26:02;;;;;;;1.13;1.02;;;;;;;0.97;100.00;100550.03;5117639;28;20100;-47
2021/11/05 02:29:05;;;;;;;3.33;2.67;;;;;;;0.93;100.00;100553.97;5116314;28;20047;-47
2021/11/05 02:32:09;;;;;;;3.50;2.53;;;;;;;0.91;100.00;100559.81;5116951;28;20088;-47
2021/11/05 02:35:14;;;;;;;3.10;2.03;;;;;;;0.91;100.00;100556.31;5116794;28;20046;-47
2021/11/05 02:38:18;;;;;;;3.83;1.63;;;;;;;0.92;100.00;100557.84;5096654;28;20396;-48
2021/11/05 02:41:22;;;;;;;2.75;2.55;;;;;;;0.89;100.00;100562.16;5096643;28;20057;-48
2021/11/05 02:44:26;;;;;;;24.17;3.33;;;;;;;0.87;100.00;100567.25;5096739;28;20534;-48
2021/11/05 02:47:29;;;;;;;7.68;2.60;;;;;;;0.88;100.00;100562.56;5096341;28;20081;-47
2021/11/05 02:50:32;;;;;;;1.75;1.65;;;;;;;0.90;100.00;100568.44;5095638;28;20123;-48
2021/11/05 02:53:35;;;;;;;1.67;1.58;;;;;;;0.88;100.00;100568.06;5096194;28;20050;-48
2021/11/05 02:56:39;;;;;;;4.38;3.15;;;;;;;0.86;100.00;100571.19;5096541;28;20051;-48
2021/11/05 02:59:42;;;;;;;1.88;1.77;;;;;;;0.80;100.00;100572.78;5096038;28;20043;-48
2021/11/05 03:02:45;;;;;;;2.22;2.10;;;;;;;0.78;100.00;100570.41;5095883;28;20051;-48
2021/11/05 03:05:48;;;;;;;3.63;1.77;;;;;;;0.77;100.00;100570.81;5095836;28;20534;-47
2021/11/05 03:08:50;;;;;;;5.38;1.98;;;;;;;0.75;100.00;100581.38;5096185;28;20082;-48
2021/11/05 03:11:53;;;;;;;2.63;2.40;;;;;;;0.65;100.00;100579.44;5096021;28;20121;-48
2021/11/05 03:14:56;;;;;;;6.47;2.42;;;;;;;0.60;100.00;100574.31;5095729;28;20040;-47
2021/11/05 03:18:00;;;;;;;1.33;1.33;;;;;;;0.59;100.00;100579.00;5095381;28;20088;-48
2021/11/05 03:21:02;;;;;;;3.30;1.85;;;;;;;0.58;100.00;100582.16;5103345;28;20092;-47
2021/11/05 03:24:06;;;;;;;1.80;1.70;;;;;;;0.62;100.00;100582.94;5116179;28;20066;-47
2021/11/05 03:27:09;;;;;;;2.67;1.20;;;;;;;0.60;100.00;100577.84;5115998;28;20038;-48
2021/11/05 03:30:15;;;;;;;5.55;2.85;;;;;;;0.60;100.00;100579.81;5115473;28;20088;-48
2021/11/05 03:33:18;;;;;;;2.25;2.03;;;;;;;0.62;100.00;100577.44;5115961;28;20532;-48
2021/11/05 03:36:20;;;;;;;1.10;1.10;;;;;;;0.61;100.00;100579.41;5121996;27;20411;-48
2021/11/05 03:39:24;;;;;;;1.88;1.77;;;;;;;0.57;100.00;100580.56;5136182;27;20407;-48
2021/11/05 03:42:27;;;;;;;3.42;2.03;;;;;;;0.52;100.00;100572.75;5136329;27;20046;-48
2021/11/05 03:45:30;;;;;;;1.52;1.50;;;;;;;0.53;100.00;100588.00;5136153;27;20399;-48
2021/11/05 03:48:35;;;;;;;2.08;1.95;;;;;;;0.42;100.00;100585.25;5136129;27;20180;-47
2021/11/05 03:51:38;;;;;;;1.02;1.02;;;;;;;0.42;100.00;100600.91;5136432;27;20100;-47
2021/11/05 03:54:43;;;;;;;2.13;2.00;;;;;;;0.40;100.00;100589.56;5136070;27;20108;-48
2021/11/05 03:57:46;;;;;;;2.47;2.15;;;;;;;0.42;100.00;100595.44;5136310;27;20046;-48
2021/11/05 04:00:48;;;;;;;2.33;2.03;;;;;;;0.44;100.00;100587.59;5136108;27;20470;-48
2021/11/05 04:03:52;;;;;;;2.47;2.28;;;;;;;0.45;100.00;100600.13;5135920;27;20099;-48
2021/11/05 04:06:55;;;;;;;4.78;1.35;;;;;;;0.46;100.00;100596.22;5135762;27;20054;-47
2021/11/05 04:09:59;;;;;;;6.18;3.40;;;;;;;0.44;100.00;100593.88;5135879;27;20089;-47
2021/11/05 04:13:02;;;;;;;1.70;1.60;;;;;;;0.42;100.00;100592.69;5135985;27;20517;-48
2021/11/05 04:16:05;;;;;;;2.05;1.88;;;;;;;0.25;100.00;100590.69;5135867;27;20066;-48
2021/11/05 04:19:08;;;;;;;1.10;1.10;;;;;;;0.33;100.00;100597.75;5135464;27;20555;-48
2021/11/05 04:22:11;;;;;;;1.38;1.38;;;;;;;0.37;100.00;100606.78;5135370;27;20081;-48
2021/11/05 04:25:14;;;;;;;1.85;1.85;;;;;;;0.39;100.00;100607.94;5123292;27;20126;-47
2021/11/05 04:28:17;;;;;;;4.38;2.28;;;;;;;0.24;100.00;100611.81;5135558;27;20388;-47
2021/11/05 04:31:20;;;;;;;1.23;1.15;;;;;;;0.21;100.00;100615.34;5134874;27;20045;-48
2021/11/05 04:34:24;;;;;;;1.65;1.65;;;;;;;0.25;100.00;100612.59;5135040;27;20050;-48
2021/11/05 04:37:27;;;;;;;1.35;1.23;;;;;;;0.34;100.00;100626.72;5134899;27;20447;-48
2021/11/05 04:40:31;;;;;;;1.13;1.13;;;;;;;0.39;100.00;100629.09;5135099;27;20057;-47
2021/11/05 04:43:34;;;;;;;2.20;1.63;;;;;;;0.38;100.00;100630.25;5135254;27;20043;-48
2021/11/05 04:46:37;;;;;;;1.05;1.05;;;;;;;0.28;100.00;100628.28;5134943;27;20100;-47
2021/11/05 04:49:40;;;;;;;2.58;2.08;;;;;;;0.21;100.00;100622.78;5134924;27;20054;-47
2021/11/05 04:52:49;;;;;;;1.92;1.83;;;;;;;0.24;100.00;100627.50;5134839;27;20070;-47
2021/11/05 04:55:52;;;;;;;1.98;1.40;;;;;;;0.26;100.00;100647.06;5135216;27;20212;-47
2021/11/05 04:58:55;;;;;;;3.95;3.60;;;;;;;0.26;100.00;100642.34;5134385;27;20042;-48
2021/11/05 05:01:58;;;;;;;4.85;2.63;;;;;;;0.27;100.00;100640.41;5134801;27;20078;-47
2021/11/05 05:05:02;;;;;;;8.02;2.80;;;;;;;0.27;100.00;100641.19;5134618;27;20039;-47
2021/11/05 05:08:05;;;;;;;6.32;2.15;;;;;;;0.29;100.00;100635.31;5134797;27;20178;-47
2021/11/05 05:11:08;;;;;;;2.25;1.75;;;;;;;0.31;100.00;100643.94;5134124;27;20217;-48
2021/11/05 05:14:10;;;;;;;1.90;1.80;;;;;;;0.30;100.00;100647.84;5122135;27;20046;-47
2021/11/05 05:17:13;;;;;;;1.27;1.23;;;;;;;0.26;100.00;100656.03;5134539;27;20042;-47
2021/11/05 05:20:17;;;;;;;1.27;1.27;;;;;;;0.28;100.00;100653.69;5120266;27;20042;-48
2021/11/05 05:23:20;;;;;;;1.00;1.00;;;;;;;0.27;100.00;100649.41;5113781;28;20078;-48
2021/11/05 05:26:23;;;;;;;1.63;1.63;;;;;;;0.29;100.00;100662.69;5114308;28;20050;-47
2021/11/05 05:29:26;;;;;;;5.07;2.70;;;;;;;0.29;100.00;100662.69;5113604;28;20042;-53
2021/11/05 05:32:29;;;;;;;1.17;1.17;;;;;;;0.30;100.00;100664.28;5113920;28;20046;-53
2021/11/05 05:35:32;;;;;;;4.30;2.47;;;;;;;0.31;100.00;100665.84;5113518;28;20082;-47
2021/11/05 05:38:35;;;;;;;2.38;2.28;;;;;;;0.41;100.00;100665.09;5113790;28;20047;-47
2021/11/05 05:41:38;;;;;;;1.85;1.45;;;;;;;0.53;100.00;100667.47;5113603;28;20050;-47
2021/11/05 05:44:42;;;;;;;2.33;2.15;;;;;;;0.58;100.00;100664.38;5113386;28;20100;-48
2021/11/05 05:47:45;;;;;;;2.03;1.92;;;;;;;0.66;100.00;100654.97;5100706;28;20393;-52
2021/11/05 05:50:48;;;;;;;3.00;2.78;;;;;;;0.67;100.00;100662.03;5113349;28;20500;-47
2021/11/05 05:53:51;;;;;;;1.45;1.42;;;;;;;0.63;100.00;100661.22;5100790;28;20056;-47
2021/11/05 05:56:54;;;;;;;6.97;2.13;;;;;;;0.63;100.00;100667.50;5113876;28;20047;-47
2021/11/05 05:59:57;;;;;;;2.13;2.08;;;;;;;0.63;100.00;100672.97;5113076;28;20423;-47
2021/11/05 06:03:00;;;;;;;1.98;1.88;;;;;;;0.60;100.00;100675.72;5113151;28;20149;-48
2021/11/05 06:06:03;;;;;;;1.80;1.70;;;;;;;0.52;100.00;100679.63;5113055;28;20086;-48
2021/11/05 06:09:07;;;;;;;2.03;1.92;;;;;;;0.46;100.00;100684.69;5112964;28;20062;-48
2021/11/05 06:12:10;;;;;;;1.25;1.25;;;;;;;0.40;100.00;100688.19;5113411;28;20092;-47
2021/11/05 06:15:13;;;;;;;10.60;1.25;;;;;;;0.44;100.00;100697.19;5100118;28;20177;-48
2021/11/05 06:18:16;;;;;;;3.08;1.92;;;;;;;0.54;100.00;100696.47;5112827;28;20092;-47
2021/11/05 06:21:23;;;;;;;1.60;1.50;;;;;;;0.71;100.00;100701.97;5123318;28;20066;-47
2021/11/05 06:24:26;;;;;;;1.17;1.17;;;;;;;0.87;100.00;100703.59;5133179;27;20384;-48
2021/11/05 06:27:30;;;;;;;1.20;1.10;;;;;;;1.02;100.00;100705.16;5120919;28;20502;-47
2021/11/05 06:30:32;;;;;;;3.40;2.15;;;;;;;1.18;100.00;100703.59;5133334;27;20045;-48
2021/11/05 06:33:35;;;;;;;3.92;1.70;;;;;;;1.31;100.00;100706.75;5133526;27;20547;-47
2021/11/05 06:36:38;;;;;;;1.50;1.40;;;;;;;1.40;100.00;100705.19;5133458;28;20080;-53
2021/11/05 06:39:41;;;;;;;3.70;2.30;;;;;;;1.48;100.00;100706.75;5133500;27;20037;-53
2021/11/05 06:42:44;;;;;;;3.63;1.42;;;;;;;1.57;100.00;100702.81;5133836;27;20498;-53
2021/11/05 06:45:47;;;;;;;2.47;2.33;;;;;;;1.67;100.00;100713.00;5133490;28;20038;-53
2021/11/05 06:48:50;;;;;;;2.05;1.95;;;;;;;1.78;100.00;100719.22;5133315;28;20046;-53
2021/11/05 06:51:54;;;;;;;1.55;1.55;;;;;;;1.84;100.00;100717.69;5133674;28;20091;-53
2021/11/05 06:54:57;;;;;;;2.63;2.50;;;;;;;1.90;100.00;100727.06;5135160;27;20110;-53
2021/11/05 06:58:00;;;;;;;2.67;1.40;;;;;;;1.97;100.00;100725.09;5137124;27;20116;-47
2021/11/05 07:01:04;;;;;;;3.92;2.08;;;;;;;2.05;100.00;100734.91;5137130;27;20493;-48
2021/11/05 07:04:07;;;;;;;5.47;1.90;;;;;;;2.13;100.00;100736.44;5136946;27;20037;-53
2021/11/05 07:07:10;;;;;;;1.00;0.90;;;;;;;2.20;100.00;100738.38;5137291;27;20423;-53
2021/11/05 07:10:13;;;;;;;2.70;1.88;;;;;;;2.26;100.00;100739.53;5137007;27;20414;-54
2021/11/05 07:13:17;;;;;;;11.05;2.08;;;;;;;2.34;100.00;100749.31;5137252;27;20042;-53
2021/11/05 07:16:21;;;;;;;6.75;2.30;;;;;;;2.39;100.00;100753.63;5136569;27;20130;-54
2021/11/05 07:19:25;;;;;;;2.65;0.90;;;;;;;2.44;100.00;100751.25;5136330;27;20045;-54
2021/11/05 07:22:28;;;;;;;1.95;1.85;;;;;;;2.48;100.00;100752.03;5136203;27;20045;-53
2021/11/05 07:25:31;;;;;;;1.40;1.35;;;;;;;2.49;100.00;100759.06;5136189;27;20045;-47
2021/11/05 07:28:34;;;;;;;6.93;1.92;;;;;;;2.53;100.00;100748.88;5123657;27;20042;-48
2021/11/05 07:31:38;;;;;;;4.05;2.55;;;;;;;2.58;100.00;100748.44;5136638;27;20391;-48
2021/11/05 07:34:41;;;;;;;1.75;1.65;;;;;;;2.60;100.00;100748.81;5136627;27;20046;-48
2021/11/05 07:37:44;;;;;;;6.53;2.00;;;;;;;2.61;100.00;100750.41;5136455;27;20511;-48
2021/11/05 07:40:47;;;;;;;1.45;0.85;;;;;;;2.67;100.00;100757.03;5136362;27;20486;-48
2021/11/05 07:43:50;;;;;;;8.52;1.27;;;;;;;2.72;100.00;100762.13;5136758;27;20043;-48
2021/11/05 07:46:53;;;;;;;6.00;1.13;;;;;;;2.76;100.00;100757.41;5136002;27;20042;-48
2021/11/05 07:49:56;;;;;;;0.88;0.88;;;;;;;2.85;100.00;100766.00;5135496;27;20039;-48
2021/11/05 07:53:04;;;;;;;0.88;0.88;;;;;;;2.85;100.00;100771.50;5135444;27;20399;-48
2021/11/05 07:56:08;;;;;;;1.65;1.05;;;;;;;2.90;100.00;100768.31;5136090;27;20049;-48
2021/11/05 07:59:11;;;;;;;4.05;1.95;;;;;;;2.99;100.00;100778.88;5135438;27;20498;-48
2021/11/05 08:02:14;;;;;;;3.88;1.35;;;;;;;3.01;100.00;100771.78;5136109;27;20046;-46
2021/11/05 08:05:17;;;;;;;2.55;1.05;;;;;;;3.06;100.00;100781.59;5134937;27;20563;-47
2021/11/05 08:08:20;;;;;;;1.83;1.17;;;;;;;3.17;100.00;100778.78;5135969;27;20060;-46
2021/11/05 08:11:24;;;;;;;1.40;1.27;;;;;;;3.23;100.00;100791.69;5135598;27;20038;-46
2021/11/05 08:14:27;;;;;;;3.22;1.05;;;;;;;3.34;100.00;100797.13;5135941;27;20532;-47
2021/11/05 08:17:30;;;;;;;6.13;2.30;;;;;;;3.43;100.00;100805.72;5122554;27;20050;-47
2021/11/05 08:20:34;;;;;;;2.38;0.65;;;;;;;3.50;100.00;100794.69;5135333;27;20100;-50
2021/11/05 08:23:37;;;;;;;4.30;1.55;;;;;;;3.54;100.00;100806.44;5135127;27;20046;-47
2021/11/05 08:26:43;;;;;;;2.63;1.75;;;;;;;3.64;100.00;100800.06;5135407;27;20564;-47
2021/11/05 08:29:46;;;;;;;1.15;1.15;;;;;;;3.77;100.00;100806.66;5134618;27;20084;-53
2021/11/05 08:32:58;;;;;;;1.67;1.02;;;;;;;3.83;100.00;100796.78;5134515;27;20506;-47
2021/11/05 08:36:03;;;;;;;3.33;1.52;;;;;;;3.88;100.00;100809.34;5121578;27;20078;-48
2021/11/05 08:39:08;;;;;;;1.40;1.13;;;;;;;3.99;100.00;100810.78;5135038;27;20042;-50
2021/11/05 08:42:11;;;;;;;7.03;1.67;;;;;;;4.06;100.00;100813.50;5134981;27;20391;-47
2021/11/05 08:45:14;;;;;;;4.63;1.58;;;;;;;4.15;100.00;100818.53;5135086;27;20757;-47
2021/11/05 08:48:18;;;;;;;1.80;0.93;;;;;;;4.23;100.00;100812.53;5121981;27;20041;-48
2021/11/05 08:51:23;;;;;;;7.43;2.80;;;;;;;4.27;100.00;100813.28;5134919;27;20046;-47
2021/11/05 08:54:28;;;;;;;1.65;1.20;;;;;;;4.34;100.00;100807.69;5134506;27;20480;-47
2021/11/05 08:57:33;;;;;;;14.10;1.98;;;;;;;4.44;100.00;100815.06;5134414;27;20042;-48
2021/11/05 09:00:37;;;;;;;5.03;2.88;;;;;;;4.55;100.00;100817.69;5134578;27;20455;-48
2021/11/05 09:03:40;;;;;;;5.40;2.97;;;;;;;4.69;100.00;100819.53;5134415;27;20127;-48
2021/11/05 09:06:44;;;;;;;1.70;1.52;;;;;;;4.82;100.00;100812.28;5134597;27;20384;-48
2021/11/05 09:09:47;;;;;;;1.70;1.45;;;;;;;4.85;100.00;100816.97;5133929;27;20099;-48
2021/11/05 09:12:51;;;;;;;10.43;3.20;;;;;;;4.86;100.00;100824.81;5133855;27;20395;-48
2021/11/05 09:15:54;;;;;;;2.95;2.33;;;;;;;4.92;100.00;100819.63;5134730;27;20042;-49
2021/11/05 09:19:01;;;;;;;15.27;2.25;;;;;;;4.97;100.00;100821.94;5133693;27;20061;-48
2021/11/05 09:22:05;;;;;;;1.40;0.95;;;;;;;5.14;100.00;100826.44;5117307;27;20038;-48
2021/11/05 09:25:08;;;;;;;4.95;2.10;;;;;;;5.31;100.00;100830.94;5113383;28;20184;-54
2021/11/05 09:28:11;;;;;;;5.40;1.08;;;;;;;5.43;100.00;100833.13;5112844;28;20109;-54
2021/11/05 09:31:14;;;;;;;6.05;3.25;;;;;;;5.50;100.00;100835.78;5113656;28;20058;-54
2021/11/05 09:34:17;;;;;;;12.57;2.83;;;;;;;5.60;100.00;100834.06;5113294;28;20093;-54
2021/11/05 09:37:21;;;;;;;2.20;1.35;;;;;;;5.77;100.00;100827.47;5113208;28;20131;-54
2021/11/05 09:40:28;;;;;;;2.72;1.77;;;;;;;5.97;100.00;100831.94;5113321;28;20046;-54
2021/11/05 09:43:31;;;;;;;2.40;1.23;;;;;;;6.01;100.00;100831.84;5113316;28;20469;-54
2021/11/05 09:46:37;;;;;;;3.45;1.85;;;;;;;6.09;100.00;100834.09;5100554;28;20047;-53
2021/11/05 09:49:41;;;;;;;6.63;1.67;;;;;;;6.07;100.00;100830.97;5112921;28;20126;-54
2021/11/05 09:52:47;;;;;;;11.32;2.58;;;;;;;6.09;100.00;100834.09;5113260;28;20066;-54
2021/11/05 09:55:51;;;;;;;1.48;1.02;;;;;;;6.08;100.00;100838.06;5113462;28;20050;-54
2021/11/05 09:58:54;;;;;;;4.05;1.70;;;;;;;6.17;100.00;100839.50;5112762;28;20485;-54
2021/11/05 10:01:57;;;;;;;3.08;2.05;;;;;;;6.25;100.00;100840.94;5100507;28;20104;-54
2021/11/05 10:05:01;;;;;;;3.55;2.53;;;;;;;6.38;100.00;100839.13;5112683;28;20560;-54
2021/11/05 10:08:04;;;;;;;2.10;1.80;;;;;;;6.46;100.00;100846.84;5113000;28;20076;-54
2021/11/05 10:11:31;;;;;;;3.13;1.95;;;;;;;6.55;100.00;100854.59;5113145;28;20042;-54
2021/11/05 10:14:34;;;;;;;6.15;2.97;;;;;;;6.61;100.00;100850.13;5113186;28;20038;-54
2021/11/05 10:17:37;;;;;;;7.25;2.17;;;;;;;6.69;100.00;100854.34;5112676;28;20054;-54
2021/11/05 10:20:41;;;;;;;4.07;1.65;;;;;;;6.77;100.00;100839.16;5113044;28;20088;-54
2021/11/05 10:23:45;;;;;;;5.45;1.75;;;;;;;6.93;100.00;100858.59;5113007;28;20042;-54
2021/11/05 10:26:49;;;;;;;1.85;1.63;;;;;;;7.12;100.00;100862.56;5113171;28;20497;-48
2021/11/05 10:29:52;;;;;;;6.80;3.28;;;;;;;7.26;100.00;100859.50;5115045;28;20093;-48
2021/11/05 10:32:58;;;;;;;3.22;1.98;;;;;;;7.37;100.00;100855.28;5116899;28;20115;-50
2021/11/05 10:36:04;;;;;;;6.93;1.90;;;;;;;7.40;100.00;100856.44;5117011;28;20058;-48
2021/11/05 10:39:08;;;;;;;4.38;1.70;;;;;;;7.47;100.00;100870.13;5116779;28;20046;-48
2021/11/05 10:42:11;;;;;;;3.90;2.08;;;;;;;7.52;100.00;100867.63;5116925;28;20073;-49
2021/11/05 10:45:19;;;;;;;4.95;1.98;;;;;;;7.63;100.00;100862.63;5116901;28;20046;-49
2021/11/05 10:48:23;;;;;;;7.72;1.77;;;;;;;7.81;100.00;100864.19;5116792;28;20047;-48
2021/11/05 10:51:28;;;;;;;4.47;1.10;;;;;;;7.95;100.00;100850.00;5116686;28;20070;-48
2021/11/05 10:54:51;;;;;;;12.48;2.47;;;;;;;8.08;100.00;100853.63;5116832;28;20067;-48
2021/11/05 10:57:55;;;;;;;6.65;2.80;;;;;;;8.26;100.00;100854.00;5116609;28;20089;-48
2021/11/05 11:01:06;;;;;;;2.70;1.73;;;;;;;8.29;100.00;100855.91;5116143;28;20042;-48
2021/11/05 11:04:11;;;;;;;4.28;2.90;;;;;;;8.27;100.00;100861.13;5115725;28;20103;-49
2021/11/05 11:07:33;;;;;;;3.65;1.83;;;;;;;8.27;100.00;100861.88;5116139;28;20050;-49
2021/11/05 11:10:38;;;;;;;4.70;1.90;;;;;;;8.37;100.00;100865.59;5115960;28;20583;-48
2021/11/05 11:13:42;;;;;;;7.22;1.65;;;;;;;8.49;100.00;100867.66;5116250;28;20482;-48
2021/11/05 11:16:59;;;;;;;4.47;2.75;;;;;;;8.64;100.00;100863.28;5116205;28;20047;-48
2021/11/05 11:20:03;;;;;;;3.92;3.13;;;;;;;8.80;100.00;100871.56;5122804;27;20046;-49
2021/11/05 11:23:06;;;;;;;6.70;2.50;;;;;;;8.90;100.00;100862.16;5133239;27;20034;-48
2021/11/05 11:26:09;;;;;;;5.22;2.22;;;;;;;8.89;100.00;100865.38;5116178;28;20062;-48
2021/11/05 11:29:14;;;;;;;2.65;2.33;;;;;;;8.93;100.00;100866.06;5115558;28;20630;-48
2021/11/05 11:32:18;;;;;;;4.45;1.88;;;;;;;8.95;100.00;100872.75;5115722;28;20486;-49
2021/11/05 11:35:21;;;;;;;11.23;1.38;;;;;;;9.09;100.00;100855.69;5115588;28;20038;-48
2021/11/05 11:38:24;;;;;;;5.00;2.22;;;;;;;9.14;100.00;100857.91;5115634;28;20046;-48
2021/11/05 11:41:28;;;;;;;9.30;2.90;;;;;;;9.26;100.00;100863.94;5114149;28;20395;-48
2021/11/05 11:44:35;;;;;;;9.07;2.58;;;;;;;9.41;100.00;100859.50;5115775;28;20099;-49
2021/11/05 11:47:47;;;;;;;4.05;2.83;;;;;;;9.40;100.00;100855.19;5115385;28;20108;-48
2021/11/05 11:50:50;;;;;;;4.95;2.55;;;;;;;9.50;100.00;100857.63;5115395;28;20051;-48
2021/11/05 11:53:56;;;;;;;16.42;3.22;;;;;;;9.63;100.00;100849.28;5115173;28;20434;-48
2021/11/05 11:57:20;;;;;;;3.50;2.38;;;;;;;9.78;100.00;100850.41;5115449;28;20089;-48
2021/11/05 12:00:24;;;;;;;5.07;2.90;;;;;;;9.79;100.00;100857.50;5115144;28;20503;-46
2021/11/05 12:03:28;;;;;;;7.85;2.75;;;;;;;9.95;100.00;100849.03;5115293;28;20100;-46
2021/11/05 12:06:46;;;;;;;3.60;2.17;;;;;;;10.02;100.00;100854.38;5114963;28;20395;-46
2021/11/05 12:09:49;;;;;;;11.15;2.63;;;;;;;10.12;100.00;100850.50;5114510;28;20050;-46
2021/11/05 12:12:53;;;;;;;4.18;2.80;;;;;;;10.25;100.00;100844.91;5115001;28;20039;-46
2021/11/05 12:16:26;;;;;;;2.42;2.22;;;;;;;10.39;100.00;100856.34;5114691;28;20107;-46
2021/11/05 12:19:37;;;;;;;6.15;2.13;;;;;;;10.43;100.00;100850.66;5114848;28;20058;-46
2021/11/05 12:22:41;;;;;;;3.03;2.53;;;;;;;10.44;100.00;100858.53;5114542;28;20104;-47
2021/11/05 12:26:02;;;;;;;6.47;2.10;;;;;;;10.52;100.00;100859.88;5102368;28;20046;-46
2021/11/05 12:29:05;;;;;;;4.93;2.35;;;;;;;10.61;100.00;100851.56;5114507;28;20046;-46
2021/11/05 12:32:14;;;;;;;8.27;2.13;;;;;;;10.73;100.00;100863.13;5114702;28;20122;-47
2021/11/05 12:35:19;;;;;;;11.50;2.80;;;;;;;10.77;100.00;100856.19;5114305;28;20470;-52
2021/11/05 12:38:22;;;;;;;10.70;2.38;;;;;;;10.78;100.00;100859.75;5114487;28;20055;-53
2021/11/05 12:41:26;;;;;;;10.05;3.20;;;;;;;10.83;100.00;100845.25;5114082;28;20446;-53
2021/11/05 12:45:00;;;;;;;6.55;2.45;;;;;;;10.86;100.00;100844.34;5114472;28;20041;-52
2021/11/05 12:48:04;;;;;;;5.80;1.85;;;;;;;10.99;100.00;100853.41;5114139;28;20046;-53
2021/11/05 12:51:10;;;;;;;1.80;1.25;;;;;;;11.18;100.00;100852.28;5114213;28;20038;-53
2021/11/05 12:54:22;;;;;;;4.97;2.03;;;;;;;11.36;100.00;100855.19;5113903;28;20659;-52
2021/11/05 12:57:25;;;;;;;1.70;0.75;;;;;;;11.51;100.00;100852.63;5114542;28;20434;-53
2021/11/05 13:00:32;;;;;;;0.68;0.68;;;;;;;11.65;100.00;100841.69;5113866;28;20117;-52
2021/11/05 13:03:35;;;;;;;1.42;1.33;;;;;;;11.75;100.00;100851.69;5113904;28;20047;-53
2021/11/05 13:06:52;;;;;;;1.35;1.15;;;;;;;11.78;100.00;100853.56;5113717;28;20049;-52
2021/11/05 13:09:55;;;;;;;0.55;0.55;;;;;;;11.80;100.00;100851.06;5100698;28;20092;-52
2021/11/05 13:12:59;;;;;;;1.30;1.20;;;;;;;11.93;100.00;100840.56;5113952;28;20042;-52
2021/11/05 13:16:10;;;;;;;1.25;1.15;;;;;;;12.11;100.00;100843.44;5113320;28;20049;-52
2021/11/05 13:19:16;;;;;;;;;;;;;;;12.30;100.00;100844.22;5114094;28;20039;-52
2021/11/05 13:22:21;;;;;;;0.17;0.17;;;;;;;12.54;100.00;100841.63;5132600;27;19943;-53
2021/11/05 13:25:28;;;;;;;0.98;0.90;;;;;;;12.63;100.00;100844.41;5133986;27;20058;-52
2021/11/05 13:28:32;;;;;;;1.95;0.10;;;;;;;12.66;100.00;100832.31;5133639;27;20046;-52
2021/11/05 13:31:35;;;;;;;0.40;0.40;;;;;;;12.77;100.00;100827.81;5133853;27;20091;-52
2021/11/05 13:34:38;;;;;;;1.95;0.40;;;;;;;12.85;100.00;100822.66;5133304;27;20100;-52
2021/11/05 13:37:41;;;;;;;0.85;0.75;;;;;;;12.96;100.00;100831.34;5132809;27;20054;-52
2021/11/05 13:40:51;;;;;;;1.85;0.70;;;;;;;13.02;100.00;100826.69;5133455;27;20034;-52
2021/11/05 13:43:58;;;;;;;3.15;0.88;;;;;;;13.05;100.00;100820.19;5133324;27;20051;-52
2021/11/05 13:47:12;;;;;;;0.52;0.52;;;;;;;12.95;100.00;100818.59;5133373;27;20083;-52
2021/11/05 13:50:19;;;;;;;5.38;1.10;;;;;;;12.88;100.00;100819.72;5133702;27;20076;-52
2021/11/05 13:53:23;;;;;;;0.52;0.43;;;;;;;12.93;100.00;100823.88;5133613;27;20107;-52
2021/11/05 13:56:29;;;;;;;1.80;1.00;;;;;;;12.94;100.00;100822.66;5133853;27;20061;-52
2021/11/05 13:59:56;;;;;;;1.50;0.77;;;;;;;12.98;100.00;100809.28;5134601;27;20545;-52
2021/11/05 14:02:59;;;;;;;1.25;0.95;;;;;;;12.98;100.00;100812.09;5133237;27;20089;-52
2021/11/05 14:06:13;;;;;;;0.77;0.38;;;;;;;13.01;100.00;100819.56;5133629;27;20712;-52
2021/11/05 14:09:24;;;;;;;1.02;0.73;;;;;;;13.06;100.00;100816.13;5133114;28;20046;-52
2021/11/05 14:12:27;;;;;;;4.25;1.08;;;;;;;13.07;100.00;100822.50;5133650;28;20499;-52
2021/11/05 14:15:31;;;;;;;0.73;0.35;;;;;;;13.04;100.00;100813.00;5132877;28;20856;-52
2021/11/05 14:18:34;;;;;;;1.38;0.52;;;;;;;13.02;100.00;100821.09;5133171;28;20234;-53